Charles Darwin — GDLS — position and weather

sailwx.info

Track history (hours):
 
Tides and Currents Weather Stations Pressure Air Temp Water Temp Dewpoint Dewpoint Depression Visibility Wind Speed Wind Dir Waves Ship Positions

Oceanographic research ship Charles Darwin (UK)

Detailed information on ship capabilities available from University of Delaware's Ocean Information Center.

Last reported at 2017-Apr-29 23:33 UTC. Time now 2017-Apr-30 05:15 UTC.
Position N 49°53' W 005°01'.

Length 70 m; draft 5.6 m.

Type: Cargo ship. MMSI: 235011460.

Date/timePositionNaut miles runAvg speedWind from/ knotsBaromVisibWave heightAir tempDewpointWater temp
2017-Apr-29 23:33N 49°53' W 005°01'0 8.9
2017-Apr-29 23:30N 49°53' W 005°00'5 8.8
2017-Apr-29 22:59N 49°57' W 004°58'5 8.1
2017-Apr-29 22:22N 50°02' W 004°57'3 7.3
2017-Apr-29 21:59N 50°05' W 004°58'3 7.0
2017-Apr-29 21:30N 50°07' W 005°02'2 3.4
2017-Apr-29 20:59N 50°06' W 005°01'1 1.6
2017-Apr-29 20:30N 50°05' W 005°00'0 0.9
2017-Apr-29 19:58N 50°06' W 005°01'1 1.3
2017-Apr-29 19:30N 50°06' W 005°01'1 1.4
2017-Apr-29 19:00N 50°05' W 005°01'3 5.1
2017-Apr-29 18:30N 50°08' W 005°02'2 3.7
2017-Apr-29 18:00N 50°09' W 005°03'0 0.5
2017-Apr-29 17:29N 50°09' W 005°03'0 0.0
2017-Apr-29 16:56N 50°09' W 005°03'0 0.0
2017-Apr-29 16:29N 50°09' W 005°03'0 0.0
2017-Apr-29 15:59N 50°09' W 005°03'0 0.0
2017-Apr-29 15:26N 50°09' W 005°03'0 0.0
2017-Apr-29 14:50N 50°09' W 005°03'0 0.0
2017-Apr-29 14:26N 50°09' W 005°03'0 0.0
2017-Apr-29 13:29N 50°09' W 005°03'0 0.0
2017-Apr-29 12:59N 50°09' W 005°03'0 0.0
2017-Apr-29 12:29N 50°09' W 005°03'0 0.0
2017-Apr-29 11:59N 50°09' W 005°03'0 0.0
2017-Apr-29 11:26N 50°09' W 005°03'0 0.0
2017-Apr-29 10:59N 50°09' W 005°03'0 0.0
2017-Apr-29 10:23N 50°09' W 005°03'0 0.0
2017-Apr-29 09:56N 50°09' W 005°03'0 0.0
2017-Apr-29 09:20N 50°09' W 005°03'0 0.0
2017-Apr-29 08:59N 50°09' W 005°03'0 0.0
2017-Apr-29 08:14N 50°09' W 005°03'0 0.0
2017-Apr-29 07:50N 50°09' W 005°03'0 0.0
2017-Apr-29 07:02N 50°09' W 005°03'0 0.0
2017-Apr-29 06:14N 50°09' W 005°03'0 0.0
2017-Apr-29 05:59N 50°09' W 005°03'0 0.0
2017-Apr-29 05:26N 50°09' W 005°03'0 0.0
2017-Apr-29 04:59N 50°09' W 005°03'0 0.0
2017-Apr-29 04:26N 50°09' W 005°03'0 0.0
2017-Apr-29 03:56N 50°09' W 005°03'0 0.0
2017-Apr-29 03:26N 50°09' W 005°03'0 0.0
2017-Apr-29 02:59N 50°09' W 005°03'0 0.0
2017-Apr-29 02:23N 50°09' W 005°03'0 0.0
2017-Apr-29 01:56N 50°09' W 005°03'0 0.0
2017-Apr-29 01:29N 50°09' W 005°03'0 0.0
2017-Apr-29 00:59N 50°09' W 005°03'0 0.0
2017-Apr-29 00:23N 50°09' W 005°03'0 0.0
2017-Apr-28 23:59N 50°09' W 005°03'0 0.0
2017-Apr-28 23:29N 50°09' W 005°03'0 0.0
2017-Apr-28 22:11N 50°09' W 005°03'0 0.0
2017-Apr-28 21:59N 50°09' W 005°03'0 0.0
2017-Apr-28 21:29N 50°09' W 005°03'0 0.0
2017-Apr-28 20:53N 50°09' W 005°03'0 0.0
2017-Apr-28 20:29N 50°09' W 005°03'0 0.0
2017-Apr-28 19:59N 50°09' W 005°03'0 0.0
2017-Apr-28 19:26N 50°09' W 005°03'0 0.0
2017-Apr-28 18:59N 50°09' W 005°03'0 0.0
2017-Apr-28 18:23N 50°09' W 005°03'0 0.0
2017-Apr-28 17:32N 50°09' W 005°03'0 0.1
2017-Apr-28 17:29N 50°09' W 005°03'0 0.0
2017-Apr-28 16:59N 50°09' W 005°03'0 0.0
2017-Apr-28 16:30N 50°09' W 005°03'0 0.0
2017-Apr-28 16:00N 50°09' W 005°03'0 0.0
2017-Apr-28 15:30N 50°09' W 005°03'0 0.0
2017-Apr-28 15:00N 50°09' W 005°03'0 0.0
2017-Apr-28 14:00N 50°09' W 005°03'0 0.0
2017-Apr-28 13:30N 50°09' W 005°03'0 0.0
2017-Apr-28 13:00N 50°09' W 005°03'0 0.0
2017-Apr-28 12:30N 50°09' W 005°03'0 0.0
2017-Apr-28 12:00N 50°09' W 005°03'0 0.0
2017-Apr-28 11:30N 50°09' W 005°03'0 0.0
2017-Apr-28 11:00N 50°09' W 005°03'0 0.0
2017-Apr-28 10:30N 50°09' W 005°03'0 0.0
2017-Apr-28 10:00N 50°09' W 005°03'0 0.0
2017-Apr-28 09:30N 50°09' W 005°03'0 0.0
2017-Apr-28 09:00N 50°09' W 005°03'0 0.0
2017-Apr-28 08:30N 50°09' W 005°03'0 0.0
2017-Apr-28 08:00N 50°09' W 005°03'0 0.0
2017-Apr-28 07:30N 50°09' W 005°03'0 0.0
2017-Apr-28 07:00N 50°09' W 005°03'0 0.0
2017-Apr-28 06:30N 50°09' W 005°03'0 0.0
2017-Apr-28 06:00N 50°09' W 005°03'0 0.0
2017-Apr-28 05:30N 50°09' W 005°03'0 0.0
2017-Apr-28 05:00N 50°09' W 005°03'0 0.0
2017-Apr-28 04:30N 50°09' W 005°03'1 1.3
2017-Apr-28 03:53N 50°09' W 005°02'2 2.9
2017-Apr-28 03:07N 50°07' W 005°02'0 1.4
2017-Apr-28 03:00N 50°07' W 005°02'1 1.9
2017-Apr-28 02:30N 50°08' W 005°04'0 0.2
2017-Apr-28 01:44N 50°07' W 005°04'0 0.0
2017-Apr-28 01:26N 50°07' W 005°04'0 0.0
2017-Apr-28 00:59N 50°07' W 005°04'0 0.0
2017-Apr-28 00:26N 50°07' W 005°04'0 0.0
2017-Apr-27 23:56N 50°07' W 005°04'0 0.0
2017-Apr-27 23:29N 50°07' W 005°04'0 0.0
2017-Apr-27 22:56N 50°07' W 005°04'0 0.0
2017-Apr-27 22:29N 50°07' W 005°04'0 0.0
2017-Apr-27 21:59N 50°07' W 005°04'0 0.0
2017-Apr-27 21:26N 50°07' W 005°04'0 0.0
2017-Apr-27 20:59N 50°07' W 005°04'0 0.0
2017-Apr-27 20:29N 50°07' W 005°04'0 0.0
2017-Apr-27 19:56N 50°07' W 005°04'0 0.0
2017-Apr-27 19:29N 50°07' W 005°04'0 0.0
2017-Apr-27 18:56N 50°07' W 005°04'0 0.0
2017-Apr-27 18:23N 50°07' W 005°04'0 0.0
2017-Apr-27 17:59N 50°07' W 005°04'0 0.0
2017-Apr-27 17:29N 50°07' W 005°04'0 0.0
2017-Apr-27 16:59N 50°07' W 005°04'0 0.0
2017-Apr-27 16:29N 50°07' W 005°04'0 0.0
2017-Apr-27 15:50N 50°07' W 005°04'0 0.0
2017-Apr-27 15:29N 50°07' W 005°04'0 0.0
2017-Apr-27 14:56N 50°07' W 005°04'0 0.0
2017-Apr-27 14:20N 50°07' W 005°04'0 0.0
2017-Apr-27 13:26N 50°07' W 005°04'0 0.0
2017-Apr-27 12:59N 50°07' W 005°04'0 0.0
2017-Apr-27 10:44N 50°07' W 005°04'0 0.0
2017-Apr-27 10:23N 50°07' W 005°04'0 0.0
2017-Apr-27 09:44N 50°07' W 005°04'0 0.0
2017-Apr-27 09:20N 50°07' W 005°04'0 0.0
2017-Apr-27 08:59N 50°07' W 005°04'0 0.0
2017-Apr-27 08:26N 50°07' W 005°04'0 0.0
2017-Apr-27 07:56N 50°07' W 005°04'0 0.0
2017-Apr-27 07:29N 50°07' W 005°04'0 0.0
2017-Apr-27 06:56N 50°07' W 005°04'0 0.0
2017-Apr-27 06:26N 50°07' W 005°04'0 0.0
2017-Apr-27 05:56N 50°07' W 005°04'0 0.0
2017-Apr-27 05:08N 50°07' W 005°04'0 0.0
2017-Apr-27 04:26N 50°07' W 005°04'0 0.0
2017-Apr-27 03:56N 50°07' W 005°04'0 0.0
2017-Apr-27 02:56N 50°07' W 005°04'0 0.0
2017-Apr-27 02:23N 50°07' W 005°04'0 0.0
2017-Apr-27 01:38N 50°07' W 005°04'0 0.0
2017-Apr-27 01:29N 50°07' W 005°04'0 0.0
2017-Apr-26 22:11N 50°07' W 005°04'0 0.0
2017-Apr-26 21:50N 50°07' W 005°04'0 0.0
2017-Apr-26 21:29N 50°07' W 005°04'0 0.0
2017-Apr-26 20:44N 50°07' W 005°04'0 0.0
2017-Apr-26 20:29N 50°07' W 005°04'0 0.0
2017-Apr-26 19:56N 50°07' W 005°04'0 0.0
2017-Apr-26 19:20N 50°07' W 005°04'0 0.0
2017-Apr-26 18:59N 50°07' W 005°04'0 0.0
2017-Apr-26 18:23N 50°07' W 005°04'0 0.0
2017-Apr-26 17:47N 50°07' W 005°04'0 0.1
2017-Apr-26 17:29N 50°07' W 005°04'0 0.0
2017-Apr-26 16:56N 50°07' W 005°04'0 0.0
2017-Apr-26 16:23N 50°07' W 005°04'0 0.0
2017-Apr-26 15:59N 50°07' W 005°04'0 0.0
2017-Apr-26 15:11N 50°07' W 005°04'0 0.0
2017-Apr-26 14:47N 50°07' W 005°04'0 0.0
2017-Apr-26 14:02N 50°07' W 005°04'0 0.0
2017-Apr-26 13:29N 50°07' W 005°04'0 0.0
2017-Apr-26 11:08N 50°07' W 005°04'0 0.1
2017-Apr-26 10:50N 50°07' W 005°04'0 0.0
2017-Apr-26 09:32N 50°07' W 005°04'0 0.1
2017-Apr-26 09:26N 50°07' W 005°04'0 0.0
2017-Apr-26 08:17N 50°07' W 005°04'0 0.0
2017-Apr-26 07:47N 50°07' W 005°04'0 0.0
2017-Apr-26 07:20N 50°07' W 005°04'0 0.1
2017-Apr-26 06:56N 50°07' W 005°04'0 0.0
2017-Apr-26 06:26N 50°07' W 005°04'0 0.0
2017-Apr-26 05:59N 50°07' W 005°04'0 0.0
2017-Apr-26 05:29N 50°07' W 005°04'0 0.0
2017-Apr-26 04:59N 50°07' W 005°04'0 0.0
2017-Apr-26 04:29N 50°07' W 005°04'0 0.0
2017-Apr-26 03:59N 50°07' W 005°04'0 0.0
2017-Apr-26 03:29N 50°07' W 005°04'0 0.0
2017-Apr-26 02:59N 50°07' W 005°04'0 0.0
2017-Apr-26 02:26N 50°07' W 005°04'0 0.0
2017-Apr-26 01:53N 50°07' W 005°04'0 0.0
2017-Apr-26 01:26N 50°07' W 005°04'0 0.0
2017-Apr-26 00:59N 50°07' W 005°04'0 0.0
2017-Apr-26 00:05N 50°07' W 005°04'0 0.1
2017-Apr-25 23:59N 50°07' W 005°04'0 0.0
2017-Apr-25 23:23N 50°07' W 005°04'0 0.0
2017-Apr-25 22:53N 50°07' W 005°04'0 0.0
2017-Apr-25 22:29N 50°07' W 005°04'0 0.0
2017-Apr-25 21:53N 50°07' W 005°04'0 0.0
2017-Apr-25 21:29N 50°07' W 005°04'0 0.0
2017-Apr-25 20:53N 50°07' W 005°04'0 0.0
2017-Apr-25 20:26N 50°07' W 005°04'0 0.0
2017-Apr-25 19:56N 50°07' W 005°04'0 0.0
2017-Apr-25 19:29N 50°07' W 005°04'0 0.0
2017-Apr-25 18:56N 50°07' W 005°04'0 0.1
2017-Apr-25 18:20N 50°07' W 005°04'0 0.0
2017-Apr-25 17:50N 50°07' W 005°04'0 0.0
2017-Apr-25 17:23N 50°07' W 005°04'0 0.0
2017-Apr-25 16:59N 50°07' W 005°04'0 0.0
2017-Apr-25 16:29N 50°07' W 005°04'0 0.0
2017-Apr-25 15:59N 50°07' W 005°04'0 0.0
2017-Apr-25 15:26N 50°07' W 005°04'0 0.0
2017-Apr-25 14:44N 50°07' W 005°04'0 0.0
2017-Apr-25 13:59N 50°07' W 005°04'0 0.0
2017-Apr-25 13:29N 50°07' W 005°04'0 0.0
2017-Apr-25 12:47N 50°07' W 005°04'0 0.0
2017-Apr-25 12:23N 50°07' W 005°04'0 0.0
2017-Apr-25 11:53N 50°07' W 005°04'0 0.0
2017-Apr-25 11:29N 50°07' W 005°04'0 0.0
2017-Apr-25 10:50N 50°07' W 005°04'0 0.0
2017-Apr-25 10:14N 50°07' W 005°04'0 0.0
2017-Apr-25 09:50N 50°07' W 005°04'0 0.0
2017-Apr-25 09:17N 50°07' W 005°04'0 0.0
2017-Apr-25 08:59N 50°07' W 005°04'0 0.1
2017-Apr-25 08:23N 50°07' W 005°04'0 0.0
2017-Apr-25 07:50N 50°07' W 005°04'0 0.0
2017-Apr-25 07:23N 50°07' W 005°04'0 0.0
2017-Apr-25 06:50N 50°07' W 005°04'0 0.0
2017-Apr-25 06:26N 50°07' W 005°04'0 0.0
2017-Apr-25 05:53N 50°07' W 005°04'0 0.0
2017-Apr-25 05:23N 50°07' W 005°04'0 0.0
2017-Apr-25 04:56N 50°07' W 005°04'0 0.0
2017-Apr-25 04:29N 50°07' W 005°04'0 0.0
2017-Apr-25 03:50N 50°07' W 005°04'0 0.1
2017-Apr-25 03:29N 50°07' W 005°04'0 0.0
2017-Apr-25 02:59N 50°07' W 005°04'0 0.0
2017-Apr-25 02:29N 50°07' W 005°04'0 0.0
2017-Apr-25 01:59N 50°07' W 005°04'0 0.0
2017-Apr-25 01:29N 50°07' W 005°04'0 0.0
2017-Apr-25 00:50N 50°07' W 005°04'0 0.0
2017-Apr-25 00:20N 50°07' W 005°04'0 0.0
2017-Apr-24 23:59N 50°07' W 005°04'0 0.0
2017-Apr-24 23:20N 50°07' W 005°04'0 0.1
2017-Apr-24 22:59N 50°07' W 005°04'0 0.0
2017-Apr-24 22:29N 50°07' W 005°04'0 0.0
2017-Apr-24 21:50N 50°07' W 005°04'0 0.0
2017-Apr-24 21:26N 50°07' W 005°04'0 0.0
2017-Apr-24 20:50N 50°07' W 005°04'0 0.0
2017-Apr-24 20:26N 50°07' W 005°04'0 0.0
2017-Apr-24 19:56N 50°07' W 005°04'0 0.0
2017-Apr-24 19:26N 50°07' W 005°04'0 0.0
2017-Apr-24 18:50N 50°07' W 005°04'0 0.0
2017-Apr-24 18:20N 50°07' W 005°04'0 0.0
2017-Apr-24 17:53N 50°07' W 005°04'0 0.0
2017-Apr-24 17:26N 50°07' W 005°04'0 0.0
2017-Apr-24 16:56N 50°07' W 005°04'0 0.0
2017-Apr-24 16:26N 50°07' W 005°04'0 0.0
2017-Apr-24 15:44N 50°07' W 005°04'0 0.0
2017-Apr-24 15:26N 50°07' W 005°04'0 0.0
2017-Apr-24 13:14N 50°07' W 005°04'0 0.1
2017-Apr-24 12:53N 50°07' W 005°04'0 0.0
2017-Apr-24 12:29N 50°07' W 005°04'0 0.0
2017-Apr-24 11:50N 50°07' W 005°04'0 0.0
2017-Apr-24 11:26N 50°07' W 005°04'0 0.0
2017-Apr-24 10:38N 50°07' W 005°04'0 0.0
2017-Apr-24 10:20N 50°07' W 005°04'0 0.0
2017-Apr-24 09:44N 50°07' W 005°04'0 0.1
2017-Apr-24 09:26N 50°07' W 005°04'0 0.0
2017-Apr-24 08:59N 50°07' W 005°04'0 0.0
2017-Apr-24 08:23N 50°07' W 005°04'0 0.0
2017-Apr-24 06:29N 50°07' W 005°04'0 0.0
2017-Apr-24 05:59N 50°07' W 005°04'0 0.0
2017-Apr-24 05:26N 50°07' W 005°04'0 0.0
2017-Apr-24 04:56N 50°07' W 005°04'0 0.0
2017-Apr-24 04:29N 50°07' W 005°04'0 0.0
2017-Apr-24 02:38N 50°07' W 005°04'0 0.0
2017-Apr-24 02:11N 50°07' W 005°04'0 0.0
2017-Apr-24 01:50N 50°07' W 005°04'0 0.0
2017-Apr-24 01:26N 50°07' W 005°04'0 0.0
2017-Apr-24 00:53N 50°07' W 005°04'0 0.0
2017-Apr-24 00:26N 50°07' W 005°04'0 0.0
2017-Apr-23 23:59N 50°07' W 005°04'0 0.0
2017-Apr-23 22:56N 50°07' W 005°04'0 0.0
2017-Apr-23 19:53N 50°07' W 005°04'0 0.0
2017-Apr-23 18:17N 50°07' W 005°04'0 0.0
2017-Apr-23 17:56N 50°07' W 005°04'0 0.0
2017-Apr-23 15:08N 50°07' W 005°04'0 0.0
2017-Apr-23 14:50N 50°07' W 005°04'0 0.0
2017-Apr-23 14:00N 50°07' W 005°04'0 0.3
2017-Apr-23 13:29N 50°07' W 005°04'2 4.0
2017-Apr-23 12:58N 50°06' W 005°01'3 6.2
2017-Apr-23 12:30N 50°04' W 004°58'2 4.0
2017-Apr-23 12:00N 50°02' W 004°57'5 3.4
2017-Apr-23 10:35N 49°60' W 004°50'0 4.9
2017-Apr-23 10:30N 49°60' W 004°50'3 4.7
2017-Apr-23 09:58N 49°60' W 004°46'4 4.8
2017-Apr-23 09:13N 49°60' W 004°40'2 4.9
2017-Apr-23 08:54N 49°60' W 004°38'3 5.0
2017-Apr-23 08:19N 50°00' W 004°33'2 4.9
2017-Apr-23 07:59N 50°00' W 004°30'2 4.9
2017-Apr-23 07:30N 50°00' W 004°27'3 6.4
2017-Apr-23 07:00N 50°00' W 004°22'3 7.0
2017-Apr-23 06:30N 50°00' W 004°16'3 6.8
2017-Apr-23 06:00N 50°00' W 004°11'3 6.7
2017-Apr-23 05:30N 50°00' W 004°06'3 6.6
2017-Apr-23 05:00N 50°00' W 004°01'3 6.6
2017-Apr-23 04:30N 50°01' W 003°56'8 6.7
2017-Apr-23 03:17N 50°00' W 003°43'2 8.2
2017-Apr-23 03:00N 50°00' W 003°39'4 8.2
2017-Apr-23 02:30N 50°00' W 003°33'4 8.2
2017-Apr-23 02:00N 50°00' W 003°27'4 8.5
2017-Apr-23 01:30N 49°60' W 003°20'4 8.7
2017-Apr-23 01:00N 49°60' W 003°13'5 9.2
2017-Apr-23 00:30N 49°60' W 003°06'5 9.4
2017-Apr-23 00:00N 49°60' W 002°59'5 9.7
2017-Apr-22 23:30N 50°01' W 002°51'510.1
2017-Apr-22 22:59N 50°02' W 002°43'101 7.5
2017-Apr-22 09:30N 50°27' W 000°10'510.5
2017-Apr-22 09:00N 50°28' W 000°02'510.4
2017-Apr-22 08:30N 50°29' E 000°06'510.1
2017-Apr-22 08:00N 50°31' E 000°13'5 9.8
2017-Apr-22 07:30N 50°32' E 000°21'6 9.4
2017-Apr-22 06:53N 50°34' E 000°30'3 9.2
2017-Apr-22 06:30N 50°35' E 000°35'5 9.2
2017-Apr-22 06:00N 50°37' E 000°41'5 9.3
2017-Apr-22 05:30N 50°40' E 000°47'5 9.4
2017-Apr-22 05:00N 50°43' E 000°53'5 9.6
2017-Apr-22 04:30N 50°45' E 000°59'2010.7
2017-Apr-22 02:36N 50°59' E 001°24'111.5
2017-Apr-22 02:30N 50°60' E 001°25'611.5
2017-Apr-22 02:00N 51°04' E 001°31'611.2
2017-Apr-22 01:30N 51°08' E 001°37'1010.2
2017-Apr-22 00:30N 51°16' E 001°46'5 9.6
2017-Apr-22 00:00N 51°21' E 001°49'5 9.3
2017-Apr-21 23:30N 51°25' E 001°52'5 9.1
2017-Apr-21 23:00N 51°29' E 001°56'4 8.7
2017-Apr-21 22:30N 51°33' E 001°59'4 8.7
2017-Apr-21 22:00N 51°37' E 002°01'5 8.7
2017-Apr-21 21:29N 51°41' E 002°05'4 9.0
2017-Apr-21 21:00N 51°45' E 002°07'6 9.3
2017-Apr-21 20:22N 51°50' E 002°11'17 9.8
2017-Apr-21 18:38N 52°07' E 002°16'110.8
2017-Apr-21 18:30N 52°09' E 002°15'3010.2
2017-Apr-21 15:31N 52°34' E 001°48'0 8.1
2017-Apr-21 15:30N 52°34' E 001°47'2 3.7
2017-Apr-21 14:55N 52°36' E 001°46'0 0.0
2017-Apr-21 14:20N 52°36' E 001°46'0 0.0
2017-Apr-21 13:26N 52°36' E 001°46'0 0.0
2017-Apr-21 12:59N 52°36' E 001°46'0 0.1
2017-Apr-21 12:26N 52°36' E 001°46'0 0.0
2017-Apr-21 11:56N 52°36' E 001°46'0 0.1
2017-Apr-21 11:26N 52°36' E 001°46'0 0.0
2017-Apr-21 10:59N 52°36' E 001°46'0 0.0
2017-Apr-21 10:28N 52°36' E 001°46'0 0.0
2017-Apr-21 09:58N 52°36' E 001°46'0 0.0
2017-Apr-21 09:28N 52°36' E 001°46'0 0.0
2017-Apr-21 08:59N 52°36' E 001°46'0 0.0
2017-Apr-21 08:29N 52°36' E 001°46'0 0.1
2017-Apr-21 07:50N 52°36' E 001°46'0 0.0
2017-Apr-21 07:28N 52°36' E 001°46'0 0.1
2017-Apr-21 06:58N 52°36' E 001°46'0 0.0
2017-Apr-21 06:28N 52°36' E 001°46'0 0.0
2017-Apr-21 05:58N 52°36' E 001°46'0 0.0
2017-Apr-21 05:26N 52°36' E 001°46'0 0.4
2017-Apr-21 05:00N 52°36' E 001°46'1 2.8
2017-Apr-21 04:30N 52°37' E 001°46'4 5.6
2017-Apr-21 03:52N 52°41' E 001°46'2 5.4
2017-Apr-21 03:30N 52°43' E 001°46'3 5.6
2017-Apr-21 03:00N 52°45' E 001°45'3 5.5
2017-Apr-21 02:30N 52°48' E 001°44'3 5.5
2017-Apr-21 02:00N 52°50' E 001°42'3 5.4
2017-Apr-21 01:30N 52°53' E 001°40'3 5.5
2017-Apr-21 01:00N 52°55' E 001°37'3 5.6
2017-Apr-21 00:30N 52°57' E 001°34'3 5.6
2017-Apr-21 00:00N 52°59' E 001°31'3 5.6
2017-Apr-20 23:30N 53°01' E 001°27'3 5.6
2017-Apr-20 23:00N 53°03' E 001°24'3 5.6
2017-Apr-20 22:30N 53°05' E 001°22'3 5.8
2017-Apr-20 22:00N 53°08' E 001°19'3 5.9
2017-Apr-20 21:30N 53°10' E 001°15'  
Track history (hours):
 
Tides and Currents Weather Stations Pressure Air Temp Water Temp Dewpoint Dewpoint Depression Visibility Wind Speed Wind Dir Waves Ship Positions

Oceanographic research ship Charles Darwin (UK)

Detailed information on ship capabilities available from University of Delaware's Ocean Information Center.

Last reported at 2017-Apr-29 23:33 UTC. Time now 2017-Apr-30 05:15 UTC.
Position N 49°53' W 005°01'.

Length 70 m; draft 5.6 m.

Type: Cargo ship. MMSI: 235011460.

Date/timePositionNaut miles runAvg speedWind from/ knotsBaromVisibWave heightAir tempDewpointWater temp
2017-Apr-29 23:33N 49°53' W 005°01'0 8.9
2017-Apr-29 23:30N 49°53' W 005°00'5 8.8
2017-Apr-29 22:59N 49°57' W 004°58'5 8.1
2017-Apr-29 22:22N 50°02' W 004°57'3 7.3
2017-Apr-29 21:59N 50°05' W 004°58'3 7.0
2017-Apr-29 21:30N 50°07' W 005°02'2 3.4
2017-Apr-29 20:59N 50°06' W 005°01'1 1.6
2017-Apr-29 20:30N 50°05' W 005°00'0 0.9
2017-Apr-29 19:58N 50°06' W 005°01'1 1.3
2017-Apr-29 19:30N 50°06' W 005°01'1 1.4
2017-Apr-29 19:00N 50°05' W 005°01'3 5.1
2017-Apr-29 18:30N 50°08' W 005°02'2 3.7
2017-Apr-29 18:00N 50°09' W 005°03'0 0.5
2017-Apr-29 17:29N 50°09' W 005°03'0 0.0
2017-Apr-29 16:56N 50°09' W 005°03'0 0.0
2017-Apr-29 16:29N 50°09' W 005°03'0 0.0
2017-Apr-29 15:59N 50°09' W 005°03'0 0.0
2017-Apr-29 15:26N 50°09' W 005°03'0 0.0
2017-Apr-29 14:50N 50°09' W 005°03'0 0.0
2017-Apr-29 14:26N 50°09' W 005°03'0 0.0
2017-Apr-29 13:29N 50°09' W 005°03'0 0.0
2017-Apr-29 12:59N 50°09' W 005°03'0 0.0
2017-Apr-29 12:29N 50°09' W 005°03'0 0.0
2017-Apr-29 11:59N 50°09' W 005°03'0 0.0
2017-Apr-29 11:26N 50°09' W 005°03'0 0.0
2017-Apr-29 10:59N 50°09' W 005°03'0 0.0
2017-Apr-29 10:23N 50°09' W 005°03'0 0.0
2017-Apr-29 09:56N 50°09' W 005°03'0 0.0
2017-Apr-29 09:20N 50°09' W 005°03'0 0.0
2017-Apr-29 08:59N 50°09' W 005°03'0 0.0
2017-Apr-29 08:14N 50°09' W 005°03'0 0.0
2017-Apr-29 07:50N 50°09' W 005°03'0 0.0
2017-Apr-29 07:02N 50°09' W 005°03'0 0.0
2017-Apr-29 06:14N 50°09' W 005°03'0 0.0
2017-Apr-29 05:59N 50°09' W 005°03'0 0.0
2017-Apr-29 05:26N 50°09' W 005°03'0 0.0
2017-Apr-29 04:59N 50°09' W 005°03'0 0.0
2017-Apr-29 04:26N 50°09' W 005°03'0 0.0
2017-Apr-29 03:56N 50°09' W 005°03'0 0.0
2017-Apr-29 03:26N 50°09' W 005°03'0 0.0
2017-Apr-29 02:59N 50°09' W 005°03'0 0.0
2017-Apr-29 02:23N 50°09' W 005°03'0 0.0
2017-Apr-29 01:56N 50°09' W 005°03'0 0.0
2017-Apr-29 01:29N 50°09' W 005°03'0 0.0
2017-Apr-29 00:59N 50°09' W 005°03'0 0.0
2017-Apr-29 00:23N 50°09' W 005°03'0 0.0
2017-Apr-28 23:59N 50°09' W 005°03'0 0.0
2017-Apr-28 23:29N 50°09' W 005°03'0 0.0
2017-Apr-28 22:11N 50°09' W 005°03'0 0.0
2017-Apr-28 21:59N 50°09' W 005°03'0 0.0
2017-Apr-28 21:29N 50°09' W 005°03'0 0.0
2017-Apr-28 20:53N 50°09' W 005°03'0 0.0
2017-Apr-28 20:29N 50°09' W 005°03'0 0.0
2017-Apr-28 19:59N 50°09' W 005°03'0 0.0
2017-Apr-28 19:26N 50°09' W 005°03'0 0.0
2017-Apr-28 18:59N 50°09' W 005°03'0 0.0
2017-Apr-28 18:23N 50°09' W 005°03'0 0.0
2017-Apr-28 17:32N 50°09' W 005°03'0 0.1
2017-Apr-28 17:29N 50°09' W 005°03'0 0.0
2017-Apr-28 16:59N 50°09' W 005°03'0 0.0
2017-Apr-28 16:30N 50°09' W 005°03'0 0.0
2017-Apr-28 16:00N 50°09' W 005°03'0 0.0
2017-Apr-28 15:30N 50°09' W 005°03'0 0.0
2017-Apr-28 15:00N 50°09' W 005°03'0 0.0
2017-Apr-28 14:00N 50°09' W 005°03'0 0.0
2017-Apr-28 13:30N 50°09' W 005°03'0 0.0
2017-Apr-28 13:00N 50°09' W 005°03'0 0.0
2017-Apr-28 12:30N 50°09' W 005°03'0 0.0
2017-Apr-28 12:00N 50°09' W 005°03'0 0.0
2017-Apr-28 11:30N 50°09' W 005°03'0 0.0
2017-Apr-28 11:00N 50°09' W 005°03'0 0.0
2017-Apr-28 10:30N 50°09' W 005°03'0 0.0
2017-Apr-28 10:00N 50°09' W 005°03'0 0.0
2017-Apr-28 09:30N 50°09' W 005°03'0 0.0
2017-Apr-28 09:00N 50°09' W 005°03'0 0.0
2017-Apr-28 08:30N 50°09' W 005°03'0 0.0
2017-Apr-28 08:00N 50°09' W 005°03'0 0.0
2017-Apr-28 07:30N 50°09' W 005°03'0 0.0
2017-Apr-28 07:00N 50°09' W 005°03'0 0.0
2017-Apr-28 06:30N 50°09' W 005°03'0 0.0
2017-Apr-28 06:00N 50°09' W 005°03'0 0.0
2017-Apr-28 05:30N 50°09' W 005°03'0 0.0
2017-Apr-28 05:00N 50°09' W 005°03'0 0.0
2017-Apr-28 04:30N 50°09' W 005°03'1 1.3
2017-Apr-28 03:53N 50°09' W 005°02'2 2.9
2017-Apr-28 03:07N 50°07' W 005°02'0 1.4
2017-Apr-28 03:00N 50°07' W 005°02'1 1.9
2017-Apr-28 02:30N 50°08' W 005°04'0 0.2
2017-Apr-28 01:44N 50°07' W 005°04'0 0.0
2017-Apr-28 01:26N 50°07' W 005°04'0 0.0
2017-Apr-28 00:59N 50°07' W 005°04'0 0.0
2017-Apr-28 00:26N 50°07' W 005°04'0 0.0
2017-Apr-27 23:56N 50°07' W 005°04'0 0.0
2017-Apr-27 23:29N 50°07' W 005°04'0 0.0
2017-Apr-27 22:56N 50°07' W 005°04'0 0.0
2017-Apr-27 22:29N 50°07' W 005°04'0 0.0
2017-Apr-27 21:59N 50°07' W 005°04'0 0.0
2017-Apr-27 21:26N 50°07' W 005°04'0 0.0
2017-Apr-27 20:59N 50°07' W 005°04'0 0.0
2017-Apr-27 20:29N 50°07' W 005°04'0 0.0
2017-Apr-27 19:56N 50°07' W 005°04'0 0.0
2017-Apr-27 19:29N 50°07' W 005°04'0 0.0
2017-Apr-27 18:56N 50°07' W 005°04'0 0.0
2017-Apr-27 18:23N 50°07' W 005°04'0 0.0
2017-Apr-27 17:59N 50°07' W 005°04'0 0.0
2017-Apr-27 17:29N 50°07' W 005°04'0 0.0
2017-Apr-27 16:59N 50°07' W 005°04'0 0.0
2017-Apr-27 16:29N 50°07' W 005°04'0 0.0
2017-Apr-27 15:50N 50°07' W 005°04'0 0.0
2017-Apr-27 15:29N 50°07' W 005°04'0 0.0
2017-Apr-27 14:56N 50°07' W 005°04'0 0.0
2017-Apr-27 14:20N 50°07' W 005°04'0 0.0
2017-Apr-27 13:26N 50°07' W 005°04'0 0.0
2017-Apr-27 12:59N 50°07' W 005°04'0 0.0
2017-Apr-27 10:44N 50°07' W 005°04'0 0.0
2017-Apr-27 10:23N 50°07' W 005°04'0 0.0
2017-Apr-27 09:44N 50°07' W 005°04'0 0.0
2017-Apr-27 09:20N 50°07' W 005°04'0 0.0
2017-Apr-27 08:59N 50°07' W 005°04'0 0.0
2017-Apr-27 08:26N 50°07' W 005°04'0 0.0
2017-Apr-27 07:56N 50°07' W 005°04'0 0.0
2017-Apr-27 07:29N 50°07' W 005°04'0 0.0
2017-Apr-27 06:56N 50°07' W 005°04'0 0.0
2017-Apr-27 06:26N 50°07' W 005°04'0 0.0
2017-Apr-27 05:56N 50°07' W 005°04'0 0.0
2017-Apr-27 05:08N 50°07' W 005°04'0 0.0
2017-Apr-27 04:26N 50°07' W 005°04'0 0.0
2017-Apr-27 03:56N 50°07' W 005°04'0 0.0
2017-Apr-27 02:56N 50°07' W 005°04'0 0.0
2017-Apr-27 02:23N 50°07' W 005°04'0 0.0
2017-Apr-27 01:38N 50°07' W 005°04'0 0.0
2017-Apr-27 01:29N 50°07' W 005°04'0 0.0
2017-Apr-26 22:11N 50°07' W 005°04'0 0.0
2017-Apr-26 21:50N 50°07' W 005°04'0 0.0
2017-Apr-26 21:29N 50°07' W 005°04'0 0.0
2017-Apr-26 20:44N 50°07' W 005°04'0 0.0
2017-Apr-26 20:29N 50°07' W 005°04'0 0.0
2017-Apr-26 19:56N 50°07' W 005°04'0 0.0
2017-Apr-26 19:20N 50°07' W 005°04'0 0.0
2017-Apr-26 18:59N 50°07' W 005°04'0 0.0
2017-Apr-26 18:23N 50°07' W 005°04'0 0.0
2017-Apr-26 17:47N 50°07' W 005°04'0 0.1
2017-Apr-26 17:29N 50°07' W 005°04'0 0.0
2017-Apr-26 16:56N 50°07' W 005°04'0 0.0
2017-Apr-26 16:23N 50°07' W 005°04'0 0.0
2017-Apr-26 15:59N 50°07' W 005°04'0 0.0
2017-Apr-26 15:11N 50°07' W 005°04'0 0.0
2017-Apr-26 14:47N 50°07' W 005°04'0 0.0
2017-Apr-26 14:02N 50°07' W 005°04'0 0.0
2017-Apr-26 13:29N 50°07' W 005°04'0 0.0
2017-Apr-26 11:08N 50°07' W 005°04'0 0.1
2017-Apr-26 10:50N 50°07' W 005°04'0 0.0
2017-Apr-26 09:32N 50°07' W 005°04'0 0.1
2017-Apr-26 09:26N 50°07' W 005°04'0 0.0
2017-Apr-26 08:17N 50°07' W 005°04'0 0.0
2017-Apr-26 07:47N 50°07' W 005°04'0 0.0
2017-Apr-26 07:20N 50°07' W 005°04'0 0.1
2017-Apr-26 06:56N 50°07' W 005°04'0 0.0
2017-Apr-26 06:26N 50°07' W 005°04'0 0.0
2017-Apr-26 05:59N 50°07' W 005°04'0 0.0
2017-Apr-26 05:29N 50°07' W 005°04'0 0.0
2017-Apr-26 04:59N 50°07' W 005°04'0 0.0
2017-Apr-26 04:29N 50°07' W 005°04'0 0.0
2017-Apr-26 03:59N 50°07' W 005°04'0 0.0
2017-Apr-26 03:29N 50°07' W 005°04'0 0.0
2017-Apr-26 02:59N 50°07' W 005°04'0 0.0
2017-Apr-26 02:26N 50°07' W 005°04'0 0.0
2017-Apr-26 01:53N 50°07' W 005°04'0 0.0
2017-Apr-26 01:26N 50°07' W 005°04'0 0.0
2017-Apr-26 00:59N 50°07' W 005°04'0 0.0
2017-Apr-26 00:05N 50°07' W 005°04'0 0.1
2017-Apr-25 23:59N 50°07' W 005°04'0 0.0
2017-Apr-25 23:23N 50°07' W 005°04'0 0.0
2017-Apr-25 22:53N 50°07' W 005°04'0 0.0
2017-Apr-25 22:29N 50°07' W 005°04'0 0.0
2017-Apr-25 21:53N 50°07' W 005°04'0 0.0
2017-Apr-25 21:29N 50°07' W 005°04'0 0.0
2017-Apr-25 20:53N 50°07' W 005°04'0 0.0
2017-Apr-25 20:26N 50°07' W 005°04'0 0.0
2017-Apr-25 19:56N 50°07' W 005°04'0 0.0
2017-Apr-25 19:29N 50°07' W 005°04'0 0.0
2017-Apr-25 18:56N 50°07' W 005°04'0 0.1
2017-Apr-25 18:20N 50°07' W 005°04'0 0.0
2017-Apr-25 17:50N 50°07' W 005°04'0 0.0
2017-Apr-25 17:23N 50°07' W 005°04'0 0.0
2017-Apr-25 16:59N 50°07' W 005°04'0 0.0
2017-Apr-25 16:29N 50°07' W 005°04'0 0.0
2017-Apr-25 15:59N 50°07' W 005°04'0 0.0
2017-Apr-25 15:26N 50°07' W 005°04'0 0.0
2017-Apr-25 14:44N 50°07' W 005°04'0 0.0
2017-Apr-25 13:59N 50°07' W 005°04'0 0.0
2017-Apr-25 13:29N 50°07' W 005°04'0 0.0
2017-Apr-25 12:47N 50°07' W 005°04'0 0.0
2017-Apr-25 12:23N 50°07' W 005°04'0 0.0
2017-Apr-25 11:53N 50°07' W 005°04'0 0.0
2017-Apr-25 11:29N 50°07' W 005°04'0 0.0
2017-Apr-25 10:50N 50°07' W 005°04'0 0.0
2017-Apr-25 10:14N 50°07' W 005°04'0 0.0
2017-Apr-25 09:50N 50°07' W 005°04'0 0.0
2017-Apr-25 09:17N 50°07' W 005°04'0 0.0
2017-Apr-25 08:59N 50°07' W 005°04'0 0.1
2017-Apr-25 08:23N 50°07' W 005°04'0 0.0
2017-Apr-25 07:50N 50°07' W 005°04'0 0.0
2017-Apr-25 07:23N 50°07' W 005°04'0 0.0
2017-Apr-25 06:50N 50°07' W 005°04'0 0.0
2017-Apr-25 06:26N 50°07' W 005°04'0 0.0
2017-Apr-25 05:53N 50°07' W 005°04'0 0.0
2017-Apr-25 05:23N 50°07' W 005°04'0 0.0
2017-Apr-25 04:56N 50°07' W 005°04'0 0.0
2017-Apr-25 04:29N 50°07' W 005°04'0 0.0
2017-Apr-25 03:50N 50°07' W 005°04'0 0.1
2017-Apr-25 03:29N 50°07' W 005°04'0 0.0
2017-Apr-25 02:59N 50°07' W 005°04'0 0.0
2017-Apr-25 02:29N 50°07' W 005°04'0 0.0
2017-Apr-25 01:59N 50°07' W 005°04'0 0.0
2017-Apr-25 01:29N 50°07' W 005°04'0 0.0
2017-Apr-25 00:50N 50°07' W 005°04'0 0.0
2017-Apr-25 00:20N 50°07' W 005°04'0 0.0
2017-Apr-24 23:59N 50°07' W 005°04'0 0.0
2017-Apr-24 23:20N 50°07' W 005°04'0 0.1
2017-Apr-24 22:59N 50°07' W 005°04'0 0.0
2017-Apr-24 22:29N 50°07' W 005°04'0 0.0
2017-Apr-24 21:50N 50°07' W 005°04'0 0.0
2017-Apr-24 21:26N 50°07' W 005°04'0 0.0
2017-Apr-24 20:50N 50°07' W 005°04'0 0.0
2017-Apr-24 20:26N 50°07' W 005°04'0 0.0
2017-Apr-24 19:56N 50°07' W 005°04'0 0.0
2017-Apr-24 19:26N 50°07' W 005°04'0 0.0
2017-Apr-24 18:50N 50°07' W 005°04'0 0.0
2017-Apr-24 18:20N 50°07' W 005°04'0 0.0
2017-Apr-24 17:53N 50°07' W 005°04'0 0.0
2017-Apr-24 17:26N 50°07' W 005°04'0 0.0
2017-Apr-24 16:56N 50°07' W 005°04'0 0.0
2017-Apr-24 16:26N 50°07' W 005°04'0 0.0
2017-Apr-24 15:44N 50°07' W 005°04'0 0.0
2017-Apr-24 15:26N 50°07' W 005°04'0 0.0
2017-Apr-24 13:14N 50°07' W 005°04'0 0.1
2017-Apr-24 12:53N 50°07' W 005°04'0 0.0
2017-Apr-24 12:29N 50°07' W 005°04'0 0.0
2017-Apr-24 11:50N 50°07' W 005°04'0 0.0
2017-Apr-24 11:26N 50°07' W 005°04'0 0.0
2017-Apr-24 10:38N 50°07' W 005°04'0 0.0
2017-Apr-24 10:20N 50°07' W 005°04'0 0.0
2017-Apr-24 09:44N 50°07' W 005°04'0 0.1
2017-Apr-24 09:26N 50°07' W 005°04'0 0.0
2017-Apr-24 08:59N 50°07' W 005°04'0 0.0
2017-Apr-24 08:23N 50°07' W 005°04'0 0.0
2017-Apr-24 06:29N 50°07' W 005°04'0 0.0
2017-Apr-24 05:59N 50°07' W 005°04'0 0.0
2017-Apr-24 05:26N 50°07' W 005°04'0 0.0
2017-Apr-24 04:56N 50°07' W 005°04'0 0.0
2017-Apr-24 04:29N 50°07' W 005°04'0 0.0
2017-Apr-24 02:38N 50°07' W 005°04'0 0.0
2017-Apr-24 02:11N 50°07' W 005°04'0 0.0
2017-Apr-24 01:50N 50°07' W 005°04'0 0.0
2017-Apr-24 01:26N 50°07' W 005°04'0 0.0
2017-Apr-24 00:53N 50°07' W 005°04'0 0.0
2017-Apr-24 00:26N 50°07' W 005°04'0 0.0
2017-Apr-23 23:59N 50°07' W 005°04'0 0.0
2017-Apr-23 22:56N 50°07' W 005°04'0 0.0
2017-Apr-23 19:53N 50°07' W 005°04'0 0.0
2017-Apr-23 18:17N 50°07' W 005°04'0 0.0
2017-Apr-23 17:56N 50°07' W 005°04'0 0.0
2017-Apr-23 15:08N 50°07' W 005°04'0 0.0
2017-Apr-23 14:50N 50°07' W 005°04'0 0.0
2017-Apr-23 14:00N 50°07' W 005°04'0 0.3
2017-Apr-23 13:29N 50°07' W 005°04'2 4.0
2017-Apr-23 12:58N 50°06' W 005°01'3 6.2
2017-Apr-23 12:30N 50°04' W 004°58'2 4.0
2017-Apr-23 12:00N 50°02' W 004°57'5 3.4
2017-Apr-23 10:35N 49°60' W 004°50'0 4.9
2017-Apr-23 10:30N 49°60' W 004°50'3 4.7
2017-Apr-23 09:58N 49°60' W 004°46'4 4.8
2017-Apr-23 09:13N 49°60' W 004°40'2 4.9
2017-Apr-23 08:54N 49°60' W 004°38'3 5.0
2017-Apr-23 08:19N 50°00' W 004°33'2 4.9
2017-Apr-23 07:59N 50°00' W 004°30'2 4.9
2017-Apr-23 07:30N 50°00' W 004°27'3 6.4
2017-Apr-23 07:00N 50°00' W 004°22'3 7.0
2017-Apr-23 06:30N 50°00' W 004°16'3 6.8
2017-Apr-23 06:00N 50°00' W 004°11'3 6.7
2017-Apr-23 05:30N 50°00' W 004°06'3 6.6
2017-Apr-23 05:00N 50°00' W 004°01'3 6.6
2017-Apr-23 04:30N 50°01' W 003°56'8 6.7
2017-Apr-23 03:17N 50°00' W 003°43'2 8.2
2017-Apr-23 03:00N 50°00' W 003°39'4 8.2
2017-Apr-23 02:30N 50°00' W 003°33'4 8.2
2017-Apr-23 02:00N 50°00' W 003°27'4 8.5
2017-Apr-23 01:30N 49°60' W 003°20'4 8.7
2017-Apr-23 01:00N 49°60' W 003°13'5 9.2
2017-Apr-23 00:30N 49°60' W 003°06'5 9.4
2017-Apr-23 00:00N 49°60' W 002°59'5 9.7
2017-Apr-22 23:30N 50°01' W 002°51'510.1
2017-Apr-22 22:59N 50°02' W 002°43'101 7.5
2017-Apr-22 09:30N 50°27' W 000°10'510.5
2017-Apr-22 09:00N 50°28' W 000°02'510.4
2017-Apr-22 08:30N 50°29' E 000°06'510.1
2017-Apr-22 08:00N 50°31' E 000°13'5 9.8
2017-Apr-22 07:30N 50°32' E 000°21'6 9.4
2017-Apr-22 06:53N 50°34' E 000°30'3 9.2
2017-Apr-22 06:30N 50°35' E 000°35'5 9.2
2017-Apr-22 06:00N 50°37' E 000°41'5 9.3
2017-Apr-22 05:30N 50°40' E 000°47'5 9.4
2017-Apr-22 05:00N 50°43' E 000°53'5 9.6
2017-Apr-22 04:30N 50°45' E 000°59'2010.7
2017-Apr-22 02:36N 50°59' E 001°24'111.5
2017-Apr-22 02:30N 50°60' E 001°25'611.5
2017-Apr-22 02:00N 51°04' E 001°31'611.2
2017-Apr-22 01:30N 51°08' E 001°37'1010.2
2017-Apr-22 00:30N 51°16' E 001°46'5 9.6
2017-Apr-22 00:00N 51°21' E 001°49'5 9.3
2017-Apr-21 23:30N 51°25' E 001°52'5 9.1
2017-Apr-21 23:00N 51°29' E 001°56'4 8.7
2017-Apr-21 22:30N 51°33' E 001°59'4 8.7
2017-Apr-21 22:00N 51°37' E 002°01'5 8.7
2017-Apr-21 21:29N 51°41' E 002°05'4 9.0
2017-Apr-21 21:00N 51°45' E 002°07'6 9.3
2017-Apr-21 20:22N 51°50' E 002°11'17 9.8
2017-Apr-21 18:38N 52°07' E 002°16'110.8
2017-Apr-21 18:30N 52°09' E 002°15'3010.2
2017-Apr-21 15:31N 52°34' E 001°48'0 8.1
2017-Apr-21 15:30N 52°34' E 001°47'2 3.7
2017-Apr-21 14:55N 52°36' E 001°46'0 0.0
2017-Apr-21 14:20N 52°36' E 001°46'0 0.0
2017-Apr-21 13:26N 52°36' E 001°46'0 0.0
2017-Apr-21 12:59N 52°36' E 001°46'0 0.1
2017-Apr-21 12:26N 52°36' E 001°46'0 0.0
2017-Apr-21 11:56N 52°36' E 001°46'0 0.1
2017-Apr-21 11:26N 52°36' E 001°46'0 0.0
2017-Apr-21 10:59N 52°36' E 001°46'0 0.0
2017-Apr-21 10:28N 52°36' E 001°46'0 0.0
2017-Apr-21 09:58N 52°36' E 001°46'0 0.0
2017-Apr-21 09:28N 52°36' E 001°46'0 0.0
2017-Apr-21 08:59N 52°36' E 001°46'0 0.0
2017-Apr-21 08:29N 52°36' E 001°46'0 0.1
2017-Apr-21 07:50N 52°36' E 001°46'0 0.0
2017-Apr-21 07:28N 52°36' E 001°46'0 0.1
2017-Apr-21 06:58N 52°36' E 001°46'0 0.0
2017-Apr-21 06:28N 52°36' E 001°46'0 0.0
2017-Apr-21 05:58N 52°36' E 001°46'0 0.0
2017-Apr-21 05:26N 52°36' E 001°46'0 0.4
2017-Apr-21 05:00N 52°36' E 001°46'1 2.8
2017-Apr-21 04:30N 52°37' E 001°46'4 5.6
2017-Apr-21 03:52N 52°41' E 001°46'2 5.4
2017-Apr-21 03:30N 52°43' E 001°46'3 5.6
2017-Apr-21 03:00N 52°45' E 001°45'3 5.5
2017-Apr-21 02:30N 52°48' E 001°44'3 5.5
2017-Apr-21 02:00N 52°50' E 001°42'3 5.4
2017-Apr-21 01:30N 52°53' E 001°40'3 5.5
2017-Apr-21 01:00N 52°55' E 001°37'3 5.6
2017-Apr-21 00:30N 52°57' E 001°34'3 5.6
2017-Apr-21 00:00N 52°59' E 001°31'3 5.6
2017-Apr-20 23:30N 53°01' E 001°27'3 5.6
2017-Apr-20 23:00N 53°03' E 001°24'3 5.6
2017-Apr-20 22:30N 53°05' E 001°22'3 5.8
2017-Apr-20 22:00N 53°08' E 001°19'3 5.9
2017-Apr-20 21:30N 53°10' E 001°15'  

Dump ship's entire track history